createdAt,value
2023-02-02T00:01:19.806Z,49.90
2023-02-02T00:04:10.352Z,49.90
2023-02-02T00:06:58.930Z,49.90
2023-02-02T00:09:47.296Z,49.90
2023-02-02T00:12:35.661Z,49.90
2023-02-02T00:15:24.253Z,49.90
2023-02-02T00:18:12.763Z,49.90
2023-02-02T00:21:02.465Z,49.90
2023-02-02T00:23:51.138Z,49.90
2023-02-02T00:26:40.285Z,49.90
2023-02-02T00:29:30.056Z,49.90
2023-02-02T00:32:18.237Z,49.90
2023-02-02T00:35:07.020Z,49.80
2023-02-02T00:37:56.657Z,49.80
2023-02-02T00:40:44.893Z,49.80
2023-02-02T00:43:33.284Z,49.80
2023-02-02T00:46:21.070Z,49.90
2023-02-02T00:49:10.283Z,49.80
2023-02-02T00:51:59.184Z,49.80
2023-02-02T00:54:48.881Z,49.80
2023-02-02T00:57:37.179Z,49.80
2023-02-02T01:00:27.611Z,49.80
2023-02-02T01:03:16.342Z,49.80
2023-02-02T01:06:04.698Z,49.70
2023-02-02T01:08:53.217Z,49.70
2023-02-02T01:11:42.942Z,49.70
2023-02-02T01:14:31.312Z,49.70
2023-02-02T01:17:19.554Z,49.70
2023-02-02T01:20:10.413Z,49.70
2023-02-02T01:22:58.799Z,49.70
2023-02-02T01:25:47.315Z,49.60
2023-02-02T01:28:37.445Z,49.60
2023-02-02T01:31:26.181Z,49.60
2023-02-02T01:34:14.665Z,49.70
2023-02-02T01:37:03.009Z,49.70
2023-02-02T01:39:51.267Z,49.70
2023-02-02T01:42:39.614Z,49.70
2023-02-02T01:45:30.300Z,49.70
2023-02-02T01:48:20.822Z,49.70
2023-02-02T01:51:13.903Z,49.70
2023-02-02T01:54:03.640Z,49.70
2023-02-02T01:56:57.061Z,49.60
2023-02-02T01:59:47.631Z,49.70
2023-02-02T02:02:38.325Z,49.60
2023-02-02T02:05:31.570Z,49.60
2023-02-02T02:08:23.660Z,49.60
2023-02-02T02:11:11.866Z,49.70
2023-02-02T02:14:20.844Z,49.70
2023-02-02T02:17:21.303Z,49.60
2023-02-02T02:21:02.404Z,49.70
2023-02-02T02:24:32.433Z,49.70
2023-02-02T02:27:39.807Z,49.70
2023-02-02T02:30:57.570Z,49.70
2023-02-02T02:33:54.781Z,49.70
2023-02-02T02:36:51.201Z,49.70
2023-02-02T02:39:44.401Z,49.70
2023-02-02T02:42:37.390Z,49.70
2023-02-02T02:45:27.351Z,49.70
2023-02-02T02:48:16.127Z,49.70
2023-02-02T02:51:30.563Z,49.70
2023-02-02T02:54:22.422Z,49.70
2023-02-02T02:57:26.605Z,49.70
2023-02-02T03:00:32.234Z,49.70
2023-02-02T03:03:30.681Z,49.70
2023-02-02T03:06:29.071Z,49.60
2023-02-02T03:09:23.367Z,49.70
2023-02-02T03:12:11.864Z,49.60
2023-02-02T03:15:00.145Z,49.60
2023-02-02T03:17:49.521Z,49.60
2023-02-02T03:20:37.945Z,49.60
2023-02-02T03:23:27.838Z,49.60
2023-02-02T03:26:16.262Z,49.60
2023-02-02T03:29:05.075Z,49.60
2023-02-02T03:31:53.491Z,49.60
2023-02-02T03:34:41.831Z,49.50
2023-02-02T03:37:30.122Z,49.60
2023-02-02T03:40:19.990Z,49.60
2023-02-02T03:43:08.348Z,49.50
2023-02-02T03:46:01.531Z,49.50
2023-02-02T03:48:49.791Z,49.50
2023-02-02T03:51:38.067Z,49.50
2023-02-02T03:54:26.270Z,49.50
2023-02-02T03:57:15.912Z,49.50
2023-02-02T04:00:06.115Z,49.50
2023-02-02T04:02:55.939Z,49.50
2023-02-02T04:05:44.192Z,49.50
2023-02-02T04:08:32.601Z,49.50
2023-02-02T04:11:21.019Z,49.50
2023-02-02T04:14:11.265Z,49.50
2023-02-02T04:16:59.567Z,49.50
2023-02-02T04:19:47.935Z,49.50
2023-02-02T04:22:36.212Z,49.50
2023-02-02T04:25:24.799Z,49.50
2023-02-02T04:28:13.075Z,49.50
2023-02-02T04:31:02.843Z,49.50
2023-02-02T04:33:51.197Z,49.50
2023-02-02T04:36:39.624Z,49.50
2023-02-02T04:39:28.247Z,49.50
2023-02-02T04:42:16.557Z,49.50
2023-02-02T04:45:05.288Z,49.50
2023-02-02T04:47:54.822Z,49.50
2023-02-02T04:50:43.399Z,49.50
2023-02-02T04:53:32.383Z,49.50
2023-02-02T04:56:20.634Z,49.50
2023-02-02T04:59:08.904Z,49.50
2023-02-02T05:01:57.661Z,49.50
2023-02-02T05:04:47.608Z,49.50
2023-02-02T05:07:36.130Z,49.50
2023-02-02T05:10:24.489Z,49.50
2023-02-02T05:13:12.685Z,49.50
2023-02-02T05:16:00.986Z,49.50
2023-02-02T05:18:50.921Z,49.50
2023-02-02T05:21:40.600Z,49.50
2023-02-02T05:24:28.915Z,49.50
2023-02-02T05:27:17.145Z,49.50
2023-02-02T05:30:06.343Z,49.50
2023-02-02T05:32:54.762Z,49.50
2023-02-02T05:35:43.006Z,49.50
2023-02-02T05:38:32.664Z,49.50
2023-02-02T05:41:20.983Z,49.50
2023-02-02T05:44:12.183Z,49.50
2023-02-02T05:47:00.606Z,49.50
2023-02-02T05:49:48.873Z,49.50
2023-02-02T05:52:38.479Z,49.50
2023-02-02T05:55:28.144Z,49.50
2023-02-02T05:58:16.388Z,49.50
2023-02-02T06:01:04.930Z,49.50
2023-02-02T06:03:53.345Z,49.50
2023-02-02T06:06:42.306Z,49.50
2023-02-02T06:09:30.619Z,49.50
2023-02-02T06:12:20.258Z,49.50
2023-02-02T06:15:09.672Z,49.50
2023-02-02T06:17:58.837Z,49.50
2023-02-02T06:20:47.781Z,49.50
2023-02-02T06:23:36.369Z,49.50
2023-02-02T06:26:25.242Z,49.50
2023-02-02T06:29:15.201Z,49.50
2023-02-02T06:32:03.651Z,49.50
2023-02-02T06:34:51.939Z,49.50
2023-02-02T06:37:42.168Z,49.50
2023-02-02T06:40:30.972Z,49.50
2023-02-02T06:43:19.449Z,49.50
2023-02-02T06:46:09.067Z,49.50
2023-02-02T06:48:57.378Z,49.50
2023-02-02T06:51:47.688Z,49.50
2023-02-02T06:54:36.072Z,49.50
2023-02-02T06:57:24.482Z,49.50
2023-02-02T07:00:15.463Z,49.50
2023-02-02T07:03:05.287Z,49.50
2023-02-02T07:05:53.591Z,49.50
2023-02-02T07:08:42.094Z,49.50
2023-02-02T07:11:30.709Z,49.50
2023-02-02T07:14:19.375Z,49.50
2023-02-02T07:17:07.698Z,49.50
2023-02-02T07:19:57.699Z,49.50
2023-02-02T07:22:45.992Z,49.40
2023-02-02T07:25:34.264Z,49.40
2023-02-02T07:28:22.511Z,49.40
2023-02-02T07:31:15.123Z,49.40
2023-02-02T07:34:03.731Z,49.40
2023-02-02T07:36:53.357Z,49.40
2023-02-02T07:39:43.354Z,49.30
2023-02-02T07:42:31.573Z,49.30
2023-02-02T07:45:35.974Z,49.30
2023-02-02T07:48:24.384Z,49.20
2023-02-02T07:51:14.990Z,49.20
2023-02-02T07:54:04.916Z,49.10
2023-02-02T07:56:53.124Z,49.10
2023-02-02T07:59:41.447Z,49.10
2023-02-02T08:02:29.735Z,49.00
2023-02-02T08:05:18.218Z,49.00
2023-02-02T08:08:06.544Z,48.90
2023-02-02T08:10:56.437Z,48.90
2023-02-02T08:13:45.357Z,48.90
2023-02-02T08:16:34.662Z,48.80
2023-02-02T08:19:22.939Z,48.70
2023-02-02T08:22:11.292Z,48.70
2023-02-02T08:24:59.613Z,48.60
2023-02-02T08:27:49.267Z,48.60
2023-02-02T08:30:37.589Z,48.60
2023-02-02T08:33:25.857Z,48.50
2023-02-02T08:36:14.855Z,48.40
2023-02-02T08:39:04.410Z,48.30
2023-02-02T08:41:55.424Z,48.20
2023-02-02T08:46:01.395Z,48.10
2023-02-02T08:48:09.555Z,47.90
2023-02-02T08:51:00.380Z,47.80
2023-02-02T08:53:49.110Z,47.60
2023-02-02T08:56:37.392Z,46.70
2023-02-02T08:59:25.875Z,45.40
2023-02-02T09:02:16.982Z,45.60
2023-02-02T09:05:05.771Z,43.70
2023-02-02T09:07:54.017Z,42.60
2023-02-02T09:10:42.347Z,43.10
2023-02-02T09:13:30.701Z,43.50
2023-02-02T09:16:20.449Z,43.60
2023-02-02T09:19:11.951Z,42.90
2023-02-02T09:22:00.363Z,43.10
2023-02-02T09:24:48.555Z,43.40
2023-02-02T09:27:39.596Z,43.60
2023-02-02T09:30:28.092Z,43.60
2023-02-02T09:33:16.325Z,43.30
2023-02-02T09:36:11.721Z,42.60
2023-02-02T09:38:59.947Z,42.90
2023-02-02T09:42:29.400Z,43.20
2023-02-02T09:45:27.477Z,42.90
2023-02-02T09:48:26.922Z,43.20
2023-02-02T09:51:22.702Z,43.30
2023-02-02T09:54:17.146Z,43.30
2023-02-02T09:57:13.821Z,42.90
2023-02-02T10:00:02.178Z,43.10
2023-02-02T10:02:56.308Z,43.20
2023-02-02T10:05:51.378Z,43.40
2023-02-02T10:08:46.973Z,43.30
2023-02-02T10:11:41.445Z,43.30
2023-02-02T10:14:34.904Z,43.40
2023-02-02T10:17:40.146Z,43.50
2023-02-02T10:20:38.141Z,43.50
2023-02-02T10:23:29.259Z,43.80
2023-02-02T10:26:21.848Z,43.80
2023-02-02T10:29:17.431Z,43.90
2023-02-02T10:32:22.595Z,43.80
2023-02-02T10:35:30.583Z,42.80
2023-02-02T10:38:23.848Z,41.90
2023-02-02T10:41:22.020Z,41.60
2023-02-02T10:44:25.349Z,41.50
2023-02-02T10:47:20.725Z,41.30
2023-02-02T10:50:19.559Z,41.50
2023-02-02T10:53:14.363Z,41.00
2023-02-02T10:56:08.179Z,40.90
2023-02-02T10:59:04.164Z,40.50
2023-02-02T11:01:53.978Z,40.60
2023-02-02T11:04:59.795Z,40.60
2023-02-02T11:07:48.194Z,40.70
2023-02-02T11:10:36.565Z,40.80
2023-02-02T11:13:31.466Z,40.80
2023-02-02T11:16:23.842Z,40.70
2023-02-02T11:19:29.732Z,40.80
2023-02-02T11:22:32.447Z,40.60
2023-02-02T11:25:28.678Z,40.60
2023-02-02T11:28:22.050Z,40.60
2023-02-02T11:31:12.995Z,40.40
2023-02-02T11:34:27.551Z,40.10
2023-02-02T11:37:21.384Z,39.30
2023-02-02T11:40:26.374Z,39.60
2023-02-02T11:43:20.930Z,39.20
2023-02-02T11:46:19.924Z,39.20
2023-02-02T11:49:16.681Z,38.90
2023-02-02T11:52:15.183Z,39.10
2023-02-02T11:55:10.805Z,39.30
2023-02-02T11:58:25.065Z,39.40
2023-02-02T12:01:28.205Z,39.30
2023-02-02T12:04:26.045Z,39.50
2023-02-02T12:07:27.826Z,39.50
2023-02-02T12:10:21.025Z,39.30
2023-02-02T12:13:13.267Z,39.50
2023-02-02T12:16:10.850Z,39.60
2023-02-02T12:19:18.720Z,39.90
2023-02-02T12:22:20.728Z,40.10
2023-02-02T12:25:34.565Z,40.20
2023-02-02T12:28:36.432Z,40.50
2023-02-02T12:31:35.009Z,40.60
2023-02-02T12:34:33.853Z,40.70
2023-02-02T12:37:32.531Z,40.80
2023-02-02T12:40:34.967Z,40.60
2023-02-02T12:43:34.518Z,40.20
2023-02-02T12:46:45.554Z,40.00
2023-02-02T12:50:00.671Z,39.70
2023-02-02T12:53:02.829Z,39.60
2023-02-02T12:56:03.103Z,39.40
2023-02-02T12:59:00.069Z,39.20
2023-02-02T13:02:04.646Z,39.10
2023-02-02T13:05:06.173Z,38.90
2023-02-02T13:07:57.548Z,38.70
2023-02-02T13:10:48.584Z,38.60
2023-02-02T13:13:40.084Z,38.40
2023-02-02T13:16:29.582Z,38.30
2023-02-02T13:19:25.875Z,38.10
2023-02-02T13:22:20.064Z,37.90
2023-02-02T13:25:15.843Z,37.90
2023-02-02T13:28:07.994Z,37.80
2023-02-02T13:31:00.189Z,37.70
2023-02-02T13:33:57.301Z,37.60
2023-02-02T13:36:52.187Z,37.50
2023-02-02T13:39:45.597Z,37.60
2023-02-02T13:42:42.189Z,37.50
2023-02-02T13:45:40.834Z,37.30
2023-02-02T13:48:40.594Z,37.10
2023-02-02T13:51:45.751Z,36.90
2023-02-02T13:55:13.887Z,36.90
2023-02-02T13:58:47.262Z,36.60
2023-02-02T14:01:36.324Z,36.60
2023-02-02T14:04:28.605Z,36.80
2023-02-02T14:07:17.071Z,36.90
2023-02-02T14:10:06.717Z,37.10
2023-02-02T14:12:56.703Z,37.20
2023-02-02T14:15:45.851Z,37.20
2023-02-02T14:18:53.489Z,37.20
2023-02-02T14:22:17.691Z,37.00
2023-02-02T14:25:44.918Z,36.90
2023-02-02T14:28:44.980Z,37.00
2023-02-02T14:31:54.286Z,37.20
2023-02-02T14:34:44.002Z,37.30
2023-02-02T14:37:47.815Z,37.70
2023-02-02T14:40:48.442Z,37.80
2023-02-02T14:43:45.454Z,38.10
2023-02-02T14:46:39.721Z,38.40
2023-02-02T14:49:35.601Z,38.60
2023-02-02T14:52:24.567Z,38.90
2023-02-02T14:55:22.474Z,38.90
2023-02-02T14:58:11.036Z,39.00
2023-02-02T15:01:09.059Z,39.20
2023-02-02T15:03:58.627Z,39.30
2023-02-02T15:06:47.748Z,39.50
2023-02-02T15:09:40.145Z,39.50
2023-02-02T15:12:36.357Z,39.60
2023-02-02T15:15:29.769Z,39.60
2023-02-02T15:18:23.728Z,39.80
2023-02-02T15:21:16.548Z,40.00
2023-02-02T15:24:05.994Z,40.10
2023-02-02T15:26:55.819Z,40.20
2023-02-02T15:29:48.186Z,40.30
2023-02-02T15:32:37.598Z,40.60
2023-02-02T15:35:31.787Z,40.80
2023-02-02T15:38:21.597Z,40.90
2023-02-02T15:41:23.798Z,41.00
2023-02-02T15:44:22.770Z,41.30
2023-02-02T15:47:15.576Z,41.40
2023-02-02T15:50:17.843Z,41.40
2023-02-02T15:53:06.215Z,41.50
2023-02-02T15:55:55.998Z,41.70
2023-02-02T15:58:50.105Z,41.80
2023-02-02T16:01:48.313Z,42.00
2023-02-02T16:04:40.654Z,42.10
2023-02-02T16:07:31.527Z,42.20
2023-02-02T16:10:22.015Z,42.30
2023-02-02T16:13:24.960Z,42.40
2023-02-02T16:16:25.251Z,42.70
2023-02-02T16:19:16.508Z,42.90
2023-02-02T16:22:11.104Z,42.80
2023-02-02T16:25:03.383Z,43.00
2023-02-02T16:27:53.128Z,43.10
2023-02-02T16:30:42.192Z,43.30
2023-02-02T16:33:38.914Z,43.40
2023-02-02T16:36:29.730Z,43.60
2023-02-02T16:39:24.474Z,43.60
2023-02-02T16:42:22.948Z,43.80
2023-02-02T16:45:35.479Z,43.90
2023-02-02T16:48:33.994Z,44.30
2023-02-02T16:51:27.461Z,44.20
2023-02-02T16:54:21.753Z,44.20
2023-02-02T16:57:17.980Z,44.40
2023-02-02T17:00:09.192Z,44.50
2023-02-02T17:03:01.724Z,44.60
2023-02-02T17:05:53.594Z,44.60
2023-02-02T17:08:42.111Z,44.70
2023-02-02T17:11:32.151Z,44.70
2023-02-02T17:14:21.731Z,44.90
2023-02-02T17:17:11.315Z,44.90
2023-02-02T17:19:59.553Z,45.00
2023-02-02T17:22:50.139Z,45.00
2023-02-02T17:25:42.050Z,45.10
2023-02-02T17:28:31.728Z,45.10
2023-02-02T17:31:20.033Z,45.20
2023-02-02T17:34:12.808Z,45.20
2023-02-02T17:37:01.283Z,45.20
2023-02-02T17:39:50.847Z,45.30
2023-02-02T17:42:39.317Z,45.30
2023-02-02T17:45:34.060Z,45.30
2023-02-02T17:48:22.674Z,45.40
2023-02-02T17:51:16.014Z,45.40
2023-02-02T17:54:04.458Z,45.40
2023-02-02T17:56:52.783Z,45.50
2023-02-02T17:59:41.006Z,45.50
2023-02-02T18:02:30.728Z,45.50
2023-02-02T18:05:19.652Z,45.60
2023-02-02T18:08:08.022Z,45.60
2023-02-02T18:10:56.397Z,45.60
2023-02-02T18:13:44.772Z,45.70
2023-02-02T18:16:33.175Z,45.70
2023-02-02T18:19:23.130Z,45.80
2023-02-02T18:22:11.506Z,45.80
2023-02-02T18:24:59.769Z,45.80
2023-02-02T18:27:49.134Z,45.80
2023-02-02T18:30:39.515Z,45.80
2023-02-02T18:33:27.854Z,45.90
2023-02-02T18:36:20.070Z,45.90
2023-02-02T18:39:09.837Z,45.90
2023-02-02T18:41:58.709Z,45.90
2023-02-02T18:44:47.027Z,45.90
2023-02-02T18:47:35.455Z,46.00
2023-02-02T18:50:24.352Z,46.00
2023-02-02T18:53:16.509Z,46.00
2023-02-02T18:56:08.661Z,46.00
2023-02-02T18:58:57.183Z,46.10
2023-02-02T19:01:45.588Z,46.00
2023-02-02T19:04:34.701Z,46.00
2023-02-02T19:07:40.291Z,46.10
2023-02-02T19:10:30.654Z,46.10
2023-02-02T19:13:21.915Z,46.10
2023-02-02T19:16:17.984Z,46.10
2023-02-02T19:19:18.668Z,46.10
2023-02-02T19:22:16.451Z,46.10
2023-02-02T19:25:12.474Z,46.10
2023-02-02T19:28:08.296Z,46.10
2023-02-02T19:30:58.800Z,46.10
2023-02-02T19:33:49.343Z,46.10
2023-02-02T19:36:38.058Z,46.20
2023-02-02T19:39:31.316Z,46.20
2023-02-02T19:42:19.812Z,46.20
2023-02-02T19:45:21.690Z,46.20
2023-02-02T19:48:16.394Z,46.20
2023-02-02T19:51:29.138Z,46.20
2023-02-02T19:54:28.021Z,46.20
2023-02-02T19:57:22.256Z,46.20
2023-02-02T20:00:21.316Z,46.20
2023-02-02T20:03:13.989Z,46.20
2023-02-02T20:06:05.565Z,46.20
2023-02-02T20:08:54.247Z,46.20
2023-02-02T20:11:43.753Z,46.20
2023-02-02T20:14:36.884Z,46.20
2023-02-02T20:17:32.921Z,46.20
2023-02-02T20:20:28.188Z,46.20
2023-02-02T20:23:39.431Z,46.10
2023-02-02T20:26:31.009Z,46.20
2023-02-02T20:29:22.384Z,46.20
2023-02-02T20:32:19.493Z,46.10
2023-02-02T20:35:24.268Z,46.20
2023-02-02T20:38:21.620Z,46.20
2023-02-02T20:41:09.812Z,46.10
2023-02-02T20:43:58.181Z,46.10
2023-02-02T20:46:46.553Z,46.10
2023-02-02T20:49:35.781Z,46.10
2023-02-02T20:52:26.386Z,46.10
2023-02-02T20:55:15.058Z,46.10
2023-02-02T20:58:03.764Z,46.10
2023-02-02T21:00:52.106Z,46.10
2023-02-02T21:03:40.553Z,46.00
2023-02-02T21:06:28.914Z,46.00
2023-02-02T21:09:19.399Z,46.00
2023-02-02T21:12:07.746Z,46.00
2023-02-02T21:14:56.147Z,46.00
2023-02-02T21:17:45.134Z,46.00
2023-02-02T21:20:33.446Z,46.00
2023-02-02T21:23:21.822Z,46.00
2023-02-02T21:26:11.522Z,46.00
2023-02-02T21:28:59.942Z,46.00
2023-02-02T21:31:48.265Z,45.90
2023-02-02T21:34:37.807Z,45.90
2023-02-02T21:37:26.658Z,45.90
2023-02-02T21:40:22.589Z,45.90
2023-02-02T21:43:16.480Z,45.90
2023-02-02T21:46:05.005Z,45.90
2023-02-02T21:48:53.352Z,45.90
2023-02-02T21:51:41.734Z,45.90
2023-02-02T21:54:37.726Z,45.90
2023-02-02T21:57:36.040Z,46.00
2023-02-02T22:00:31.039Z,45.90
2023-02-02T22:03:32.992Z,45.90
2023-02-02T22:06:29.606Z,45.90
2023-02-02T22:09:22.377Z,46.00
2023-02-02T22:12:18.212Z,45.90
2023-02-02T22:15:19.529Z,45.90
2023-02-02T22:18:16.929Z,45.90
2023-02-02T22:21:07.774Z,46.00
2023-02-02T22:23:56.393Z,45.90
2023-02-02T22:26:44.753Z,45.90
2023-02-02T22:29:36.388Z,45.90
2023-02-02T22:32:24.665Z,45.90
2023-02-02T22:35:14.537Z,45.90
2023-02-02T22:38:03.706Z,45.90
2023-02-02T22:40:52.955Z,45.90
2023-02-02T22:43:41.294Z,45.90
2023-02-02T22:46:29.760Z,45.90
2023-02-02T22:49:18.216Z,45.90
2023-02-02T22:52:07.975Z,45.90
2023-02-02T22:54:56.250Z,45.90
2023-02-02T22:57:44.810Z,45.90
2023-02-02T23:00:34.147Z,45.90
2023-02-02T23:03:22.491Z,45.90
2023-02-02T23:06:11.022Z,45.90
2023-02-02T23:09:00.752Z,45.90
2023-02-02T23:11:49.552Z,45.90
2023-02-02T23:14:37.843Z,45.90
2023-02-02T23:17:26.270Z,45.90
2023-02-02T23:20:15.968Z,45.90
2023-02-02T23:23:04.501Z,45.80
2023-02-02T23:25:54.215Z,45.80
2023-02-02T23:28:42.640Z,45.80
2023-02-02T23:31:30.930Z,45.80
2023-02-02T23:34:19.349Z,45.80
2023-02-02T23:37:07.822Z,45.70
2023-02-02T23:39:56.118Z,45.80
2023-02-02T23:42:45.752Z,45.80
2023-02-02T23:45:34.141Z,45.80
2023-02-02T23:48:22.500Z,45.80
2023-02-02T23:51:11.006Z,45.80
2023-02-02T23:53:59.614Z,45.70
2023-02-02T23:56:47.983Z,45.70
2023-02-02T23:59:37.676Z,45.70
